createdAt,value
2023-02-08T00:02:58.543Z,20.53
2023-02-08T00:06:01.601Z,20.37
2023-02-08T00:09:07.115Z,20.65
2023-02-08T00:12:10.210Z,20.83
2023-02-08T00:15:13.537Z,19.55
2023-02-08T00:18:16.545Z,21.03
2023-02-08T00:21:20.727Z,19.25
2023-02-08T00:24:25.135Z,18.50
2023-02-08T00:27:28.322Z,18.75
2023-02-08T00:30:31.371Z,20.27
2023-02-08T00:33:34.829Z,22.42
2023-02-08T00:36:37.801Z,20.73
2023-02-08T00:39:42.126Z,18.15
2023-02-08T00:42:45.351Z,22.23
2023-02-08T00:45:48.450Z,20.47
2023-02-08T00:48:51.534Z,17.38
2023-02-08T00:51:54.577Z,18.02
2023-02-08T00:54:59.059Z,22.25
2023-02-08T00:58:02.113Z,19.58
2023-02-08T01:01:06.972Z,17.63
2023-02-08T01:04:10.442Z,19.35
2023-02-08T01:07:13.647Z,19.70
2023-02-08T01:10:22.841Z,23.57
2023-02-08T01:13:25.862Z,20.40
2023-02-08T01:16:33.270Z,19.65
2023-02-08T01:19:36.388Z,19.35
2023-02-08T01:22:39.369Z,23.23
2023-02-08T01:25:45.782Z,20.65
2023-02-08T01:28:49.499Z,21.40
2023-02-08T01:31:52.821Z,20.27
2023-02-08T01:34:55.920Z,21.00
2023-02-08T01:37:58.882Z,22.08
2023-02-08T01:41:04.281Z,23.27
2023-02-08T01:44:48.066Z,24.10
2023-02-08T01:48:00.304Z,24.77
2023-02-08T01:51:09.258Z,21.67
2023-02-08T01:54:14.137Z,21.25
2023-02-08T01:57:17.949Z,21.80
2023-02-08T02:00:23.209Z,23.27
2023-02-08T02:03:27.880Z,22.25
2023-02-08T02:06:36.670Z,24.48
2023-02-08T02:09:45.960Z,22.17
2023-02-08T02:12:51.445Z,20.38
2023-02-08T02:15:55.913Z,24.02
2023-02-08T02:19:00.384Z,23.13
2023-02-08T02:22:25.147Z,21.55
2023-02-08T02:26:10.128Z,24.52
2023-02-08T02:30:19.852Z,26.60
2023-02-08T02:33:59.333Z,21.33
2023-02-08T02:37:18.243Z,22.17
2023-02-08T02:40:35.790Z,20.77
2023-02-08T02:43:47.282Z,25.90
2023-02-08T02:47:01.193Z,25.33
2023-02-08T02:50:17.602Z,24.58
2023-02-08T02:53:27.960Z,27.40
2023-02-08T02:56:39.294Z,25.23
2023-02-08T02:59:45.236Z,25.35
2023-02-08T03:02:50.834Z,26.77
2023-02-08T03:06:02.246Z,28.07
2023-02-08T03:09:36.153Z,26.60
2023-02-08T03:12:55.954Z,25.50
2023-02-08T03:16:15.198Z,29.45
2023-02-08T03:19:28.752Z,27.25
2023-02-08T03:22:43.413Z,28.60
2023-02-08T03:25:53.457Z,29.08
2023-02-08T03:29:10.858Z,30.70
2023-02-08T03:32:23.165Z,28.20
2023-02-08T03:35:32.447Z,35.58
2023-02-08T03:38:44.006Z,29.63
2023-02-08T03:41:52.919Z,29.13
2023-02-08T03:45:01.639Z,28.75
2023-02-08T03:48:09.842Z,30.95
2023-02-08T03:51:13.612Z,28.90
2023-02-08T03:54:31.298Z,31.40
2023-02-08T03:57:39.623Z,31.20
2023-02-08T04:00:50.974Z,28.92
2023-02-08T04:03:56.308Z,28.08
2023-02-08T04:06:59.610Z,30.35
2023-02-08T04:10:04.203Z,32.90
2023-02-08T04:13:07.564Z,32.63
2023-02-08T04:16:12.588Z,32.03
2023-02-08T04:19:15.761Z,30.88
2023-02-08T04:22:18.836Z,37.00
2023-02-08T04:25:23.317Z,35.83
2023-02-08T04:28:26.294Z,30.88
2023-02-08T04:31:29.564Z,35.17
2023-02-08T04:34:33.118Z,37.42
2023-02-08T04:37:36.750Z,39.30
2023-02-08T04:40:41.514Z,32.95
2023-02-08T04:43:44.780Z,33.80
2023-02-08T04:46:47.864Z,42.47
2023-02-08T04:49:53.191Z,31.73
2023-02-08T04:52:57.453Z,36.20
2023-02-08T04:56:02.022Z,34.43
2023-02-08T04:59:05.308Z,34.50
2023-02-08T05:02:08.365Z,35.43
2023-02-08T05:05:11.531Z,33.10
2023-02-08T05:08:14.638Z,37.43
2023-02-08T05:11:22.849Z,36.40
2023-02-08T05:14:26.153Z,37.50
2023-02-08T05:17:29.176Z,37.67
2023-02-08T05:20:35.702Z,35.38
2023-02-08T05:23:39.501Z,36.42
2023-02-08T05:26:43.957Z,33.60
2023-02-08T05:29:47.062Z,39.53
2023-02-08T05:32:50.033Z,38.13
2023-02-08T05:35:53.037Z,39.33
2023-02-08T05:38:56.092Z,36.67
2023-02-08T05:42:00.485Z,40.67
2023-02-08T05:45:04.233Z,34.05
2023-02-08T05:48:07.390Z,35.50
2023-02-08T05:51:10.682Z,40.97
2023-02-08T05:54:13.681Z,38.13
2023-02-08T05:57:18.032Z,39.00
2023-02-08T06:00:21.835Z,38.65
2023-02-08T06:03:25.399Z,39.58
2023-02-08T06:06:28.548Z,42.90
2023-02-08T06:09:32.118Z,36.67
2023-02-08T06:12:37.050Z,41.13
2023-02-08T06:15:40.351Z,37.95
2023-02-08T06:18:43.998Z,43.25
2023-02-08T06:21:47.080Z,38.53
2023-02-08T06:24:50.098Z,43.80
2023-02-08T06:27:56.508Z,43.90
2023-02-08T06:31:00.467Z,38.97
2023-02-08T06:34:03.802Z,47.43
2023-02-08T06:37:07.068Z,38.28
2023-02-08T06:40:11.198Z,42.63
2023-02-08T06:43:17.216Z,48.50
2023-02-08T06:46:20.304Z,43.83
2023-02-08T06:49:23.384Z,44.90
2023-02-08T06:52:26.565Z,44.23
2023-02-08T06:55:29.603Z,43.57
2023-02-08T06:58:33.988Z,46.87
2023-02-08T07:01:37.451Z,42.28
2023-02-08T07:04:40.606Z,42.10
2023-02-08T07:07:43.804Z,45.35
2023-02-08T07:10:49.182Z,44.80
2023-02-08T07:13:54.569Z,42.92
2023-02-08T07:16:57.863Z,42.92
2023-02-08T07:20:01.149Z,47.55
2023-02-08T07:23:04.259Z,46.87
2023-02-08T07:26:11.904Z,39.03
2023-02-08T07:29:16.938Z,39.60
2023-02-08T07:32:19.992Z,39.10
2023-02-08T07:35:23.007Z,36.97
2023-02-08T07:38:26.054Z,42.10
2023-02-08T07:41:29.065Z,50.17
2023-02-08T07:44:33.634Z,39.63
2023-02-08T07:47:36.680Z,44.00
2023-02-08T07:50:40.028Z,41.93
2023-02-08T07:53:43.318Z,36.53
2023-02-08T07:56:46.364Z,44.07
2023-02-08T07:59:52.032Z,39.83
2023-02-08T08:02:56.854Z,40.42
2023-02-08T08:06:00.637Z,37.75
2023-02-08T08:09:05.687Z,37.85
2023-02-08T08:12:08.890Z,39.78
2023-02-08T08:15:13.337Z,40.63
2023-02-08T08:18:16.868Z,33.45
2023-02-08T08:21:20.030Z,36.28
2023-02-08T08:24:23.067Z,34.10
2023-02-08T08:27:26.081Z,31.35
2023-02-08T08:30:30.585Z,34.67
2023-02-08T08:33:33.563Z,35.85
2023-02-08T08:36:36.798Z,37.85
2023-02-08T08:39:39.855Z,33.43
2023-02-08T08:42:43.127Z,35.30
2023-02-08T08:45:48.068Z,33.67
2023-02-08T08:48:52.620Z,30.92
2023-02-08T08:51:56.619Z,33.35
2023-02-08T08:55:05.196Z,31.17
2023-02-08T08:58:08.302Z,36.05
2023-02-08T09:01:13.965Z,33.65
2023-02-08T09:04:17.188Z,35.63
2023-02-08T09:07:20.257Z,30.53
2023-02-08T09:10:27.928Z,31.70
2023-02-08T09:13:33.397Z,30.08
2023-02-08T09:16:38.138Z,34.00
2023-02-08T09:19:42.467Z,30.30
2023-02-08T09:22:45.559Z,31.50
2023-02-08T09:25:50.119Z,31.67
2023-02-08T09:28:54.330Z,29.88
2023-02-08T09:35:02.249Z,30.15
2023-02-08T09:38:05.771Z,29.15
2023-02-08T09:41:30.736Z,32.42
2023-02-08T09:44:47.831Z,28.08
2023-02-08T09:48:00.612Z,28.35
2023-02-08T09:51:12.061Z,29.15
2023-02-08T09:54:23.575Z,27.92
2023-02-08T09:57:32.738Z,29.08
2023-02-08T10:00:42.557Z,28.50
2023-02-08T10:03:50.458Z,29.95
2023-02-08T10:06:53.649Z,27.05
2023-02-08T10:10:01.092Z,27.43
2023-02-08T10:13:21.456Z,23.25
2023-02-08T10:16:51.344Z,23.15
2023-02-08T10:20:10.130Z,23.77
2023-02-08T10:23:33.760Z,21.50
2023-02-08T10:26:48.246Z,19.65
2023-02-08T10:30:27.518Z,24.08
2023-02-08T10:33:42.610Z,22.75
2023-02-08T10:36:47.687Z,19.85
2023-02-08T10:39:51.644Z,22.75
2023-02-08T10:43:19.682Z,21.15
2023-02-08T10:46:42.926Z,18.10
2023-02-08T10:49:58.280Z,20.67
2023-02-08T10:53:02.897Z,17.40
2023-02-08T10:56:07.270Z,16.90
2023-02-08T10:59:20.019Z,13.95
2023-02-08T11:02:26.777Z,16.58
2023-02-08T11:05:40.502Z,12.20
2023-02-08T11:08:58.789Z,14.45
2023-02-08T11:12:03.399Z,12.85
2023-02-08T11:15:07.298Z,12.57
2023-02-08T11:18:25.571Z,10.32
2023-02-08T11:21:33.568Z,11.00
2023-02-08T11:24:43.138Z,11.02
2023-02-08T11:27:50.449Z,11.20
2023-02-08T11:31:00.335Z,14.80
2023-02-08T11:34:06.606Z,14.90
2023-02-08T11:37:17.963Z,12.32
2023-02-08T11:40:26.412Z,8.57
2023-02-08T11:43:33.170Z,16.25
2023-02-08T11:46:40.372Z,12.00
2023-02-08T11:49:51.959Z,12.90
2023-02-08T11:53:00.190Z,11.52
2023-02-08T11:56:15.386Z,16.27
2023-02-08T11:59:23.682Z,12.80
2023-02-08T12:02:42.044Z,11.65
2023-02-08T12:05:57.611Z,9.10
2023-02-08T12:09:15.423Z,10.63
2023-02-08T12:12:36.356Z,12.77
2023-02-08T12:16:01.480Z,14.40
2023-02-08T12:19:45.802Z,13.07
2023-02-08T12:23:03.456Z,13.93
2023-02-08T12:26:18.831Z,12.40
2023-02-08T12:29:47.677Z,14.18
2023-02-08T12:33:22.930Z,15.02
2023-02-08T12:36:45.833Z,13.48
2023-02-08T12:40:35.515Z,15.73
2023-02-08T12:43:58.362Z,16.48
2023-02-08T12:47:25.968Z,19.52
2023-02-08T12:50:40.062Z,17.23
2023-02-08T12:53:48.583Z,13.77
2023-02-08T12:57:02.086Z,15.70
2023-02-08T13:00:16.613Z,19.85
2023-02-08T13:03:33.822Z,13.57
2023-02-08T13:06:43.103Z,17.50
2023-02-08T13:09:55.890Z,13.68
2023-02-08T13:13:08.217Z,21.20
2023-02-08T13:16:20.992Z,15.05
2023-02-08T13:19:32.661Z,14.73
2023-02-08T13:22:41.765Z,11.25
2023-02-08T13:25:45.871Z,12.18
2023-02-08T13:32:00.416Z,11.27
2023-02-08T13:35:15.986Z,12.15
2023-02-08T13:38:28.187Z,10.30
2023-02-08T13:41:34.149Z,12.80
2023-02-08T13:44:41.155Z,12.38
2023-02-08T13:47:48.760Z,10.90
2023-02-08T13:50:56.025Z,13.50
2023-02-08T13:54:13.983Z,11.13
2023-02-08T13:57:52.599Z,16.35
2023-02-08T14:01:18.934Z,11.93
2023-02-08T14:04:37.665Z,14.18
2023-02-08T14:07:46.005Z,12.00
2023-02-08T14:11:06.182Z,14.02
2023-02-08T14:14:21.172Z,10.88
2023-02-08T14:17:30.019Z,12.63
2023-02-08T14:20:39.921Z,11.18
2023-02-08T14:23:44.495Z,11.88
2023-02-08T14:26:47.860Z,12.70
2023-02-08T14:30:01.772Z,12.00
2023-02-08T14:33:19.571Z,10.60
2023-02-08T14:36:31.728Z,10.88
2023-02-08T14:39:37.413Z,12.13
2023-02-08T14:42:58.910Z,12.30
2023-02-08T14:46:43.445Z,11.20
2023-02-08T14:49:46.997Z,10.25
2023-02-08T14:53:00.226Z,12.75
2023-02-08T14:56:17.302Z,11.70
2023-02-08T14:59:27.543Z,11.27
2023-02-08T15:02:31.981Z,10.40
2023-02-08T15:05:45.379Z,10.93
2023-02-08T15:08:53.484Z,13.90
2023-02-08T15:12:04.969Z,11.30
2023-02-08T15:15:24.766Z,14.00
2023-02-08T15:18:33.577Z,12.90
2023-02-08T15:21:38.791Z,13.60
2023-02-08T15:24:52.495Z,12.75
2023-02-08T15:27:59.761Z,10.23
2023-02-08T15:31:09.193Z,10.82
2023-02-08T15:34:13.141Z,15.07
2023-02-08T15:37:19.606Z,12.13
2023-02-08T15:40:27.590Z,17.88
2023-02-08T15:43:32.395Z,14.20
2023-02-08T15:46:36.811Z,15.45
2023-02-08T15:49:45.179Z,16.40
2023-02-08T15:52:49.484Z,12.82
2023-02-08T15:55:57.691Z,17.33
2023-02-08T15:59:05.375Z,15.93
2023-02-08T16:02:24.757Z,19.80
2023-02-08T16:05:31.611Z,15.05
2023-02-08T16:08:37.588Z,17.02
2023-02-08T16:11:40.658Z,17.40
2023-02-08T16:14:52.392Z,16.85
2023-02-08T16:17:55.963Z,19.73
2023-02-08T16:21:00.178Z,16.00
2023-02-08T16:24:20.218Z,20.27
2023-02-08T16:27:28.541Z,20.08
2023-02-08T16:30:33.449Z,16.52
2023-02-08T16:33:49.245Z,18.08
2023-02-08T16:36:54.489Z,18.10
2023-02-08T16:40:02.535Z,23.02
2023-02-08T16:43:29.743Z,22.95
2023-02-08T16:46:52.749Z,23.48
2023-02-08T16:50:02.830Z,21.13
2023-02-08T16:53:28.167Z,17.63
2023-02-08T16:56:50.519Z,26.45
2023-02-08T16:59:56.733Z,23.83
2023-02-08T17:03:06.784Z,20.70
2023-02-08T17:06:53.998Z,23.83
2023-02-08T17:10:47.811Z,23.35
2023-02-08T17:14:11.118Z,27.17
2023-02-08T17:17:57.252Z,31.27
2023-02-08T17:21:10.000Z,28.38
2023-02-08T17:24:13.027Z,26.08
2023-02-08T17:27:16.952Z,32.03
2023-02-08T17:30:25.391Z,29.75
2023-02-08T17:33:29.347Z,32.70
2023-02-08T17:36:37.135Z,32.70
2023-02-08T17:39:40.268Z,32.47
2023-02-08T17:42:43.436Z,30.07
2023-02-08T17:45:47.066Z,32.23
2023-02-08T17:48:50.461Z,35.78
2023-02-08T17:51:55.072Z,33.78
2023-02-08T17:54:58.149Z,37.33
2023-02-08T17:58:01.239Z,32.20
2023-02-08T18:01:04.800Z,32.05
2023-02-08T18:04:11.067Z,30.60
2023-02-08T18:07:15.543Z,36.30
2023-02-08T18:10:19.005Z,34.88
2023-02-08T18:13:22.061Z,34.05
2023-02-08T18:16:27.595Z,30.83
2023-02-08T18:19:30.756Z,30.20
2023-02-08T18:22:37.997Z,34.40
2023-02-08T18:25:42.635Z,34.35
2023-02-08T18:28:46.533Z,41.08
2023-02-08T18:31:49.869Z,30.42
2023-02-08T18:34:52.983Z,35.42
2023-02-08T18:37:57.461Z,32.22
2023-02-08T18:41:01.647Z,33.05
2023-02-08T18:44:04.632Z,31.10
2023-02-08T18:47:09.466Z,34.60
2023-02-08T18:50:12.895Z,32.53
2023-02-08T18:53:17.296Z,32.25
2023-02-08T18:56:23.926Z,36.33
2023-02-08T18:59:27.433Z,31.13
2023-02-08T19:02:30.890Z,33.63
2023-02-08T19:05:38.535Z,26.77
2023-02-08T19:08:44.943Z,28.17
2023-02-08T19:11:48.343Z,32.60
2023-02-08T19:14:52.260Z,35.72
2023-02-08T19:17:55.916Z,26.33
2023-02-08T19:21:04.981Z,33.38
2023-02-08T19:24:09.408Z,30.20
2023-02-08T19:27:12.446Z,32.58
2023-02-08T19:30:17.153Z,31.45
2023-02-08T19:33:20.175Z,29.65
2023-02-08T19:36:28.248Z,30.88
2023-02-08T19:39:32.951Z,28.10
2023-02-08T19:42:36.783Z,31.35
2023-02-08T19:45:39.830Z,30.35
2023-02-08T19:48:43.770Z,34.97
2023-02-08T19:51:46.976Z,27.13
2023-02-08T19:54:52.787Z,28.87
2023-02-08T19:57:55.792Z,27.17
2023-02-08T20:00:59.692Z,30.67
2023-02-08T20:04:04.044Z,25.95
2023-02-08T20:07:08.778Z,34.53
2023-02-08T20:10:13.723Z,34.15
2023-02-08T20:13:17.545Z,35.03
2023-02-08T20:16:22.569Z,32.55
2023-02-08T20:19:26.906Z,30.75
2023-02-08T20:22:31.592Z,33.72
2023-02-08T20:25:36.282Z,30.23
2023-02-08T20:28:41.973Z,31.98
2023-02-08T20:31:48.822Z,30.15
2023-02-08T20:34:59.523Z,31.88
2023-02-08T20:38:03.203Z,37.10
2023-02-08T20:41:10.625Z,33.22
2023-02-08T20:44:16.752Z,32.65
2023-02-08T20:47:23.196Z,32.80
2023-02-08T20:50:27.847Z,30.40
2023-02-08T20:53:30.923Z,31.98
2023-02-08T20:56:38.032Z,35.65
2023-02-08T20:59:41.424Z,33.20
2023-02-08T21:02:44.475Z,33.08
2023-02-08T21:05:47.542Z,32.55
2023-02-08T21:08:52.024Z,28.73
2023-02-08T21:11:56.468Z,34.17
2023-02-08T21:14:59.568Z,29.73
2023-02-08T21:18:02.679Z,30.03
2023-02-08T21:21:07.532Z,35.50
2023-02-08T21:24:11.171Z,31.27
2023-02-08T21:27:15.609Z,35.85
2023-02-08T21:30:18.878Z,39.08
2023-02-08T21:33:21.913Z,35.47
2023-02-08T21:36:25.765Z,30.73
2023-02-08T21:39:29.354Z,33.53
2023-02-08T21:42:34.292Z,32.35
2023-02-08T21:45:37.426Z,36.13
2023-02-08T21:48:57.915Z,31.30
2023-02-08T21:52:18.820Z,34.83
2023-02-08T21:55:21.887Z,36.55
2023-02-08T21:58:26.535Z,35.60
2023-02-08T22:01:29.704Z,34.33
2023-02-08T22:04:33.932Z,33.20
2023-02-08T22:07:47.694Z,44.75
2023-02-08T22:11:08.821Z,33.15
2023-02-08T22:14:17.398Z,32.30
2023-02-08T22:17:20.765Z,35.47
2023-02-08T22:20:25.568Z,38.45
2023-02-08T22:23:29.909Z,38.28
2023-02-08T22:26:40.444Z,32.92
2023-02-08T22:29:45.925Z,42.28
2023-02-08T22:32:49.803Z,31.05
2023-02-08T22:35:53.916Z,37.08
2023-02-08T22:42:00.412Z,35.08
2023-02-08T22:45:05.444Z,42.83
2023-02-08T22:48:08.600Z,36.30
2023-02-08T22:51:16.992Z,38.17
2023-02-08T22:54:20.218Z,43.00
2023-02-08T22:57:23.548Z,36.30
2023-02-08T23:00:28.225Z,38.03
2023-02-08T23:03:31.211Z,39.22
2023-02-08T23:06:35.553Z,38.88
2023-02-08T23:09:39.596Z,42.35
2023-02-08T23:12:42.889Z,36.33
2023-02-08T23:15:48.749Z,42.03
2023-02-08T23:18:52.488Z,41.13
2023-02-08T23:21:59.564Z,43.80
2023-02-08T23:25:02.734Z,40.60
2023-02-08T23:28:07.521Z,39.30
2023-02-08T23:31:15.041Z,45.55
2023-02-08T23:34:18.700Z,40.03
2023-02-08T23:37:22.088Z,43.88
2023-02-08T23:40:25.316Z,40.17
2023-02-08T23:43:29.250Z,45.67
2023-02-08T23:46:34.180Z,41.65
2023-02-08T23:49:37.109Z,40.67
2023-02-08T23:52:40.078Z,44.20
2023-02-08T23:55:43.126Z,52.85
2023-02-08T23:58:48.385Z,43.55
